Time;durP1;ratioP1;P1;durP2;ratioP2;P2;SDS_P1;SDS_P2;PMS_P1;PMS_P2;Temp;Humidity;BMP_temperature;BMP_pressure;BME280_temperature;BME280_humidity;BME280_pressure;Samples;Min_cycle;Max_cycle;Signal;HPM_P1;HPM_P2
2023/05/29 00:00:08;;;;;;;7.87;6.47;;;;;;;12.51;100.00;99385.72;5053853;28;20190;-80
2023/05/29 00:02:43;;;;;;;7.40;6.20;;;;;;;12.45;100.00;99379.44;5067689;28;20195;-80
2023/05/29 00:05:12;;;;;;;8.43;6.47;;;;;;;12.39;100.00;99379.56;5059945;28;20203;-80
2023/05/29 00:07:40;;;;;;;9.13;7.00;;;;;;;12.36;100.00;99373.59;5060831;28;20262;-80
2023/05/29 00:10:09;;;;;;;7.57;6.50;;;;;;;12.33;100.00;99382.13;5061023;28;20198;-80
2023/05/29 00:12:37;;;;;;;7.33;6.20;;;;;;;12.27;100.00;99371.53;5055138;28;20221;-80
2023/05/29 00:15:18;;;;;;;6.60;5.93;;;;;;;12.23;100.00;99376.53;5047234;28;20203;-80
2023/05/29 00:17:46;;;;;;;7.30;6.60;;;;;;;12.18;100.00;99380.97;5065372;28;20215;-80
2023/05/29 00:20:27;;;;;;;8.10;6.60;;;;;;;12.12;100.00;99379.25;5063020;28;20202;-81
2023/05/29 00:23:09;;;;;;;9.03;6.77;;;;;;;12.08;100.00;99376.25;5048455;28;20201;-81
2023/05/29 00:25:36;;;;;;;9.23;6.27;;;;;;;12.00;100.00;99376.56;5064923;28;20215;-79
2023/05/29 00:28:17;;;;;;;8.43;6.23;;;;;;;11.99;100.00;99377.63;5057130;28;20222;-80
2023/05/29 00:30:44;;;;;;;7.97;6.60;;;;;;;11.93;100.00;99367.84;5057758;28;20253;-79
2023/05/29 00:33:30;;;;;;;7.20;5.63;;;;;;;11.91;100.00;99369.94;5069721;28;20317;-79
2023/05/29 00:35:57;;;;;;;8.23;5.90;;;;;;;11.88;100.00;99371.22;5068816;28;20198;-80
2023/05/29 00:38:24;;;;;;;8.50;6.60;;;;;;;11.83;100.00;99365.75;5065733;28;20188;-81
2023/05/29 00:40:50;;;;;;;8.10;6.20;;;;;;;11.77;100.00;99369.34;5061877;28;20270;-80
2023/05/29 00:43:17;;;;;;;7.37;6.30;;;;;;;11.69;100.00;99368.84;5072362;28;20203;-80
2023/05/29 00:45:44;;;;;;;7.10;6.40;;;;;;;11.66;100.00;99369.34;5056552;28;20212;-80
2023/05/29 00:48:11;;;;;;;7.27;5.90;;;;;;;11.68;100.00;99368.03;5059754;28;20650;-80
2023/05/29 00:50:38;;;;;;;6.77;6.07;;;;;;;11.66;100.00;99372.00;5063173;28;20200;-80
2023/05/29 00:53:06;;;;;;;8.07;6.20;;;;;;;11.64;100.00;99369.56;5052801;28;20203;-80
2023/05/29 00:55:33;;;;;;;9.17;5.73;;;;;;;11.59;100.00;99369.44;5064773;28;20658;-80
2023/05/29 00:58:14;;;;;;;6.87;6.10;;;;;;;11.52;100.00;99365.25;5064202;28;20195;-80
2023/05/29 01:00:53;;;;;;;7.30;6.07;;;;;;;11.45;100.00;99365.34;5019399;28;20204;-80
2023/05/29 01:03:22;;;;;;;7.13;5.73;;;;;;;11.40;100.00;99367.88;5066773;28;20209;-80
2023/05/29 01:06:07;;;;;;;8.83;6.20;;;;;;;11.33;100.00;99365.34;5044659;28;20214;-80
2023/05/29 01:08:34;;;;;;;6.90;6.10;;;;;;;11.29;100.00;99369.50;5065328;28;20234;-81
2023/05/29 01:11:11;;;;;;;7.20;5.90;;;;;;;11.35;100.00;99365.91;5072298;28;20217;-80
2023/05/29 01:13:40;;;;;;;7.53;6.00;;;;;;;11.23;100.00;99359.72;5063506;28;20564;-80
2023/05/29 01:16:21;;;;;;;7.47;6.10;;;;;;;11.29;100.00;99366.03;5060915;28;20274;-81
2023/05/29 01:18:59;;;;;;;6.10;5.50;;;;;;;11.16;100.00;99360.84;5063487;28;20190;-81
2023/05/29 01:21:44;;;;;;;6.80;5.83;;;;;;;11.13;100.00;99359.44;5068323;28;20202;-81
2023/05/29 01:24:44;;;;;;;6.93;6.10;;;;;;;11.11;100.00;99353.47;5046303;28;20196;-80
2023/05/29 01:27:12;;;;;;;8.63;6.10;;;;;;;11.04;100.00;99366.19;5059194;28;20191;-80
2023/05/29 01:29:42;;;;;;;9.57;6.33;;;;;;;11.03;100.00;99370.72;5074900;28;20188;-80
2023/05/29 01:32:11;;;;;;;8.73;6.00;;;;;;;10.97;100.00;99368.13;5053577;28;20197;-80
2023/05/29 01:34:37;;;;;;;7.33;5.80;;;;;;;10.94;100.00;99366.75;5069001;28;20185;-80
2023/05/29 01:37:04;;;;;;;6.17;5.57;;;;;;;10.84;100.00;99368.31;5069554;28;20238;-80
2023/05/29 01:39:31;;;;;;;7.97;5.93;;;;;;;10.76;100.00;99363.28;5062484;28;20206;-80
2023/05/29 01:42:00;;;;;;;8.50;6.27;;;;;;;10.65;100.00;99370.22;5061084;28;20193;-80
2023/05/29 01:44:27;;;;;;;6.27;5.33;;;;;;;10.68;100.00;99367.13;5065454;28;20209;-81
2023/05/29 01:46:54;;;;;;;8.23;6.37;;;;;;;10.62;100.00;99357.28;5064787;28;20191;-80
2023/05/29 01:49:23;;;;;;;7.07;5.73;;;;;;;10.60;100.00;99362.88;5045555;28;20193;-80
2023/05/29 01:51:51;;;;;;;6.93;6.20;;;;;;;10.55;100.00;99362.72;5066258;28;20270;-81
2023/05/29 01:54:18;;;;;;;9.03;6.50;;;;;;;10.50;100.00;99362.59;5079541;28;20192;-82
2023/05/29 01:56:47;;;;;;;6.77;6.07;;;;;;;10.43;100.00;99363.72;5070828;28;20258;-81
2023/05/29 01:59:30;;;;;;;8.17;5.83;;;;;;;10.47;100.00;99363.03;5069237;28;20224;-82
2023/05/29 02:02:00;;;;;;;8.47;5.70;;;;;;;10.50;100.00;99359.09;5057577;28;20254;-82
2023/05/29 02:04:27;;;;;;;7.17;5.70;;;;;;;10.40;100.00;99359.63;5078510;28;20201;-81
2023/05/29 02:06:54;;;;;;;6.77;5.63;;;;;;;10.35;100.00;99354.13;5064107;28;20648;-81
2023/05/29 02:09:25;;;;;;;7.50;6.10;;;;;;;10.31;100.00;99366.31;5052313;28;20325;-81
2023/05/29 02:11:52;;;;;;;6.70;6.10;;;;;;;10.25;100.00;99353.84;5077295;28;20216;-81
2023/05/29 02:14:20;;;;;;;7.57;5.63;;;;;;;10.23;100.00;99360.44;5068893;28;20188;-83
2023/05/29 02:17:01;;;;;;;7.03;6.17;;;;;;;10.21;100.00;99352.66;5070913;28;20185;-82
2023/05/29 02:19:29;;;;;;;6.40;5.10;;;;;;;10.21;100.00;99357.19;5067301;28;20228;-81
2023/05/29 02:21:56;;;;;;;6.87;5.73;;;;;;;10.10;100.00;99350.69;5081521;28;20663;-82
2023/05/29 02:24:52;;;;;;;7.13;5.87;;;;;;;10.10;100.00;99350.69;5065697;28;20299;-81
2023/05/29 02:27:22;;;;;;;7.70;6.00;;;;;;;10.05;100.00;99343.31;5066944;28;20219;-80
2023/05/29 02:29:49;;;;;;;6.90;5.70;;;;;;;10.09;100.00;99354.41;5059227;28;20197;-79
2023/05/29 02:32:16;;;;;;;7.10;6.00;;;;;;;10.02;100.00;99343.78;5065409;28;20189;-80
2023/05/29 02:34:57;;;;;;;9.10;6.20;;;;;;;10.04;100.00;99341.69;5051004;28;20209;-80
2023/05/29 02:37:25;;;;;;;7.07;5.63;;;;;;;10.02;100.00;99348.31;5065305;28;20242;-81
2023/05/29 02:39:52;;;;;;;6.80;5.90;;;;;;;10.00;100.00;99337.00;5065048;28;20217;-80
2023/05/29 02:42:19;;;;;;;6.97;5.73;;;;;;;9.97;100.00;99342.81;5063968;28;20205;-80
2023/05/29 02:45:03;;;;;;;7.47;5.97;;;;;;;9.91;100.00;99343.69;5061570;28;20227;-80
2023/05/29 02:47:32;;;;;;;7.23;5.40;;;;;;;9.88;100.00;99344.13;5068902;28;20247;-81
2023/05/29 02:49:59;;;;;;;6.27;5.67;;;;;;;9.86;100.00;99344.34;5062891;28;20276;-80
2023/05/29 02:52:52;;;;;;;8.47;6.00;;;;;;;9.83;100.00;99352.84;5042638;28;20204;-80
2023/05/29 02:55:20;;;;;;;8.90;5.53;;;;;;;9.81;100.00;99346.03;5074363;28;20222;-81
2023/05/29 02:57:48;;;;;;;6.80;5.90;;;;;;;9.81;100.00;99354.06;5065256;28;20680;-81
2023/05/29 03:00:15;;;;;;;8.50;6.20;;;;;;;9.83;100.00;99350.16;5059933;28;20190;-81
2023/05/29 03:02:42;;;;;;;7.53;5.33;;;;;;;9.79;100.00;99348.97;5069861;28;20224;-81
2023/05/29 03:05:11;;;;;;;6.17;5.10;;;;;;;9.79;100.00;99357.00;5071531;28;20307;-81
2023/05/29 03:07:38;;;;;;;6.27;5.50;;;;;;;9.78;100.00;99351.84;5068583;28;20237;-80
2023/05/29 03:10:05;;;;;;;6.13;5.50;;;;;;;9.73;100.00;99350.66;5056790;28;20197;-80
2023/05/29 03:12:32;;;;;;;8.90;5.80;;;;;;;9.79;100.00;99350.81;5059275;28;20197;-81
2023/05/29 03:14:59;;;;;;;6.43;5.50;;;;;;;9.79;100.00;99348.16;5061959;28;20229;-82
2023/05/29 03:17:27;;;;;;;7.43;5.90;;;;;;;9.81;100.00;99341.53;5071849;28;20193;-81
2023/05/29 03:19:55;;;;;;;7.13;5.73;;;;;;;9.80;100.00;99347.91;5042113;28;20211;-81
2023/05/29 03:22:22;;;;;;;8.33;5.63;;;;;;;9.79;100.00;99337.44;5060704;28;20201;-79
2023/05/29 03:24:51;;;;;;;7.03;6.00;;;;;;;9.93;100.00;99341.63;5055801;28;20209;-81
2023/05/29 03:27:18;;;;;;;7.10;5.80;;;;;;;9.86;100.00;99340.84;5066320;28;20194;-81
2023/05/29 03:29:49;;;;;;;6.27;5.13;;;;;;;9.86;100.00;99339.00;5078897;28;20209;-81
2023/05/29 03:32:16;;;;;;;6.00;5.40;;;;;;;9.87;100.00;99334.47;5063051;28;20193;-81
2023/05/29 03:34:43;;;;;;;6.27;5.40;;;;;;;9.97;100.00;99343.63;5060770;28;20224;-80
2023/05/29 03:37:11;;;;;;;7.07;5.40;;;;;;;10.03;100.00;99344.59;5065832;28;20231;-79
2023/05/29 03:39:37;;;;;;;6.50;5.60;;;;;;;10.13;100.00;99343.00;5063404;28;20201;-80
2023/05/29 03:42:19;;;;;;;8.60;5.57;;;;;;;10.14;100.00;99350.00;5054774;28;20274;-81
2023/05/29 03:44:50;;;;;;;6.00;5.40;;;;;;;10.21;100.00;99352.66;5026730;28;20309;-81
2023/05/29 03:47:16;;;;;;;6.47;5.43;;;;;;;10.22;100.00;99351.59;5063076;28;20616;-80
2023/05/29 03:49:44;;;;;;;6.73;5.60;;;;;;;10.20;100.00;99300.16;5054571;28;20212;-80
2023/05/29 03:52:34;;;;;;;6.17;5.43;;;;;;;10.41;100.00;99353.22;5063807;28;20269;-80
2023/05/29 03:55:02;;;;;;;7.03;5.70;;;;;;;10.53;100.00;99359.47;5052840;28;20255;-81
2023/05/29 03:57:29;;;;;;;8.00;5.80;;;;;;;10.66;100.00;99365.69;5052907;28;20676;-80
2023/05/29 03:59:55;;;;;;;7.97;5.90;;;;;;;10.94;100.00;99365.91;5036465;28;20201;-80
2023/05/29 04:02:22;;;;;;;6.60;5.97;;;;;;;11.52;100.00;99358.00;5059842;28;20212;-80
2023/05/29 04:05:06;;;;;;;6.90;5.73;;;;;;;12.55;100.00;99368.09;5057107;28;20220;-79
2023/05/29 04:07:33;;;;;;;7.10;5.73;;;;;;;13.41;100.00;99357.03;5037825;28;20257;-80
2023/05/29 04:10:03;;;;;;;6.13;5.53;;;;;;;14.32;100.00;99363.75;5055141;28;20208;-80
2023/05/29 04:12:30;;;;;;;6.03;5.43;;;;;;;15.03;100.00;99363.75;5074433;28;20212;-79
2023/05/29 04:14:57;;;;;;;6.97;5.20;;;;;;;15.68;100.00;99364.38;5057199;28;20198;-79
2023/05/29 04:17:23;;;;;;;7.40;5.33;;;;;;;16.21;100.00;99362.53;5062791;28;20203;-79
2023/05/29 04:19:50;;;;;;;5.53;4.60;;;;;;;16.79;100.00;99368.78;5057775;28;20657;-79
2023/05/29 04:22:17;;;;;;;6.47;4.90;;;;;;;17.10;100.00;99373.16;5065943;28;20665;-79
2023/05/29 04:24:43;;;;;;;6.30;5.13;;;;;;;17.47;100.00;99371.03;5058636;28;20203;-79
2023/05/29 04:27:12;;;;;;;6.50;5.33;;;;;;;17.79;100.00;99373.50;5048362;28;20607;-79
2023/05/29 04:29:42;;;;;;;5.20;4.70;;;;;;;17.74;100.00;99375.38;5043978;28;20196;-79
2023/05/29 04:32:11;;;;;;;5.33;4.83;;;;;;;17.34;100.00;99379.69;5069666;28;20200;-79
2023/05/29 04:34:43;;;;;;;7.10;5.03;;;;;;;16.85;100.00;99382.03;5064052;28;20188;-79
2023/05/29 04:37:14;;;;;;;5.10;4.60;;;;;;;16.38;100.00;99389.41;5059747;28;20283;-79
2023/05/29 04:39:40;;;;;;;6.17;5.27;;;;;;;16.03;100.00;99379.19;5040010;28;20612;-79
2023/05/29 04:42:24;;;;;;;5.60;4.40;;;;;;;15.78;100.00;99391.44;5052699;28;20193;-80
2023/05/29 04:44:53;;;;;;;7.47;5.40;;;;;;;15.61;100.00;99387.28;5053248;28;20200;-79
2023/05/29 04:47:22;;;;;;;7.53;5.30;;;;;;;15.50;100.00;99382.81;5052938;28;20196;-79
2023/05/29 04:49:50;;;;;;;6.17;5.57;;;;;;;15.40;100.00;99394.34;5052512;28;20696;-79
2023/05/29 04:52:16;;;;;;;5.60;5.00;;;;;;;15.41;100.00;99396.78;5053598;28;20185;-79
2023/05/29 04:54:43;;;;;;;5.97;4.90;;;;;;;15.51;100.00;99390.69;5052255;28;20200;-79
2023/05/29 04:57:11;;;;;;;5.53;5.03;;;;;;;15.52;100.00;99386.13;5052641;28;20193;-80
2023/05/29 05:00:13;;;;;;;5.87;4.80;;;;;;;15.67;100.00;99391.66;5055201;28;20194;-79
2023/05/29 05:02:43;;;;;;;5.57;4.87;;;;;;;15.79;100.00;99401.19;5039531;28;20284;-79
2023/05/29 05:05:12;;;;;;;5.60;5.00;;;;;;;15.98;100.00;99403.47;5055805;28;20272;-79
2023/05/29 05:07:39;;;;;;;6.43;4.80;;;;;;;16.10;100.00;99395.97;5056667;28;20253;-80
2023/05/29 05:10:07;;;;;;;5.30;4.80;;;;;;;16.22;100.00;99402.00;5055674;28;20196;-79
2023/05/29 05:12:34;;;;;;;6.50;5.07;;;;;;;16.36;100.00;99402.34;5055725;28;20739;-80
2023/05/29 05:15:01;;;;;;;6.60;4.97;;;;;;;16.59;100.00;99410.06;5055398;28;20190;-79
2023/05/29 05:17:29;;;;;;;7.63;5.20;;;;;;;16.75;100.00;99398.22;5055830;28;20198;-80
2023/05/29 05:19:56;;;;;;;5.43;4.67;;;;;;;16.91;100.00;99413.44;5056380;28;20284;-80
2023/05/29 05:22:22;;;;;;;6.87;4.87;;;;;;;16.97;100.00;99404.28;5054676;28;20186;-79
2023/05/29 05:24:52;;;;;;;6.30;4.77;;;;;;;17.11;100.00;99404.56;5055269;28;20217;-79
2023/05/29 05:27:37;;;;;;;4.87;4.37;;;;;;;17.34;100.00;99405.97;5050146;28;20201;-79
2023/05/29 05:30:05;;;;;;;6.63;4.70;;;;;;;17.55;100.00;99410.28;5054272;28;20236;-80
2023/05/29 05:32:32;;;;;;;5.43;4.50;;;;;;;17.67;100.00;99402.78;5037813;28;20187;-80
2023/05/29 05:35:04;;;;;;;6.30;4.73;;;;;;;17.85;100.00;99401.41;5054381;28;20225;-79
2023/05/29 05:37:31;;;;;;;5.20;4.70;;;;;;;17.95;100.00;99409.53;5055246;28;20186;-79
2023/05/29 05:40:00;;;;;;;5.80;4.33;;;;;;;17.97;100.00;99408.16;5053618;28;20263;-80
2023/05/29 05:42:28;;;;;;;5.27;4.77;;;;;;;17.95;100.00;99414.94;5057690;28;20292;-80
2023/05/29 05:45:01;;;;;;;5.97;4.43;;;;;;;17.86;100.00;99409.25;5058513;28;20288;-80
2023/05/29 05:47:28;;;;;;;5.30;4.50;;;;;;;18.19;100.00;99409.75;5045646;28;20272;-80
2023/05/29 05:49:56;;;;;;;6.13;4.73;;;;;;;18.42;100.00;99409.16;5047455;28;20218;-80
2023/05/29 05:52:24;;;;;;;7.43;5.03;;;;;;;18.47;100.00;99417.28;5044608;28;20197;-80
2023/05/29 05:54:51;;;;;;;4.60;4.20;;;;;;;18.31;100.00;99421.09;5046464;28;20196;-79
2023/05/29 05:57:18;;;;;;;6.00;4.23;;;;;;;18.46;100.00;99426.50;5050322;28;20220;-79
2023/05/29 05:59:45;;;;;;;5.53;4.67;;;;;;;18.77;100.00;99428.03;5030057;28;20658;-77
2023/05/29 06:02:12;;;;;;;6.73;4.90;;;;;;;18.85;100.00;99424.75;5063379;28;20193;-80
2023/05/29 06:04:39;;;;;;;8.57;4.87;;;;;;;19.03;100.00;99422.50;5065985;28;20248;-80
2023/05/29 06:07:06;;;;;;;5.60;4.33;;;;;;;18.75;100.00;99427.53;5061015;28;20705;-80
2023/05/29 06:09:34;;;;;;;5.07;4.10;;;;;;;19.07;100.00;99431.72;5060177;28;20257;-80
2023/05/29 06:12:01;;;;;;;7.23;4.60;;;;;;;19.29;100.00;99427.50;5051965;28;20190;-80
2023/05/29 06:14:28;;;;;;;5.53;4.23;;;;;;;19.49;100.00;99425.78;5056757;28;20232;-80
2023/05/29 06:16:56;;;;;;;5.73;4.50;;;;;;;19.08;100.00;99431.44;5052207;28;20220;-80
2023/05/29 06:19:25;;;;;;;5.77;4.43;;;;;;;18.76;100.00;99425.59;5048203;28;20217;-81
2023/05/29 06:21:58;;;;;;;5.23;4.20;;;;;;;19.02;100.00;99434.44;5038328;28;20202;-82
2023/05/29 06:24:27;;;;;;;5.10;4.50;;;;;;;19.38;100.00;99422.28;5050085;28;20245;-82
2023/05/29 06:27:13;;;;;;;8.40;4.93;;;;;;;19.68;100.00;99418.56;5043535;28;20356;-80
2023/05/29 06:29:40;;;;;;;6.43;4.40;;;;;;;19.92;100.00;99424.06;5047482;28;20240;-77
2023/05/29 06:32:07;;;;;;;6.13;4.53;;;;;;;19.82;100.00;99437.75;5043439;28;20733;-78
2023/05/29 06:34:51;;;;;;;4.83;4.27;;;;;;;19.89;100.00;99432.78;5045879;28;20184;-77
2023/05/29 06:37:18;;;;;;;5.03;4.03;;;;;;;19.95;100.00;99428.94;5051715;28;20217;-78
2023/05/29 06:39:45;;;;;;;4.97;4.00;;;;;;;19.96;100.00;99434.09;5042972;28;20667;-78
2023/05/29 06:42:12;;;;;;;6.73;4.07;;;;;;;20.06;100.00;99438.63;5033160;28;20203;-78
2023/05/29 06:44:41;;;;;;;5.07;3.87;;;;;;;20.32;100.00;99431.06;5048432;28;20203;-79
2023/05/29 06:47:08;;;;;;;7.70;4.40;;;;;;;20.30;100.00;99435.94;5049936;28;20255;-77
2023/05/29 06:49:36;;;;;;;4.63;4.00;;;;;;;20.18;100.00;99433.63;5058358;28;20683;-78
2023/05/29 06:52:03;;;;;;;6.03;3.77;;;;;;;20.36;99.60;99442.97;5048567;28;20554;-78
2023/05/29 06:54:50;;;;;;;5.53;3.50;;;;;;;20.47;94.56;99439.88;5057599;28;20269;-77
2023/05/29 06:57:17;;;;;;;3.83;3.40;;;;;;;20.71;92.99;99442.59;5051040;28;20673;-77
2023/05/29 06:59:43;;;;;;;4.63;3.00;;;;;;;20.65;87.91;99428.22;5054919;28;20246;-79
2023/05/29 07:02:11;;;;;;;4.60;3.60;;;;;;;20.97;90.76;99432.19;5056047;28;20202;-79
2023/05/29 07:04:38;;;;;;;3.47;3.03;;;;;;;20.98;87.72;99437.34;5055043;28;20686;-80
2023/05/29 07:07:05;;;;;;;3.90;3.10;;;;;;;21.03;83.94;99437.28;5048792;28;20333;-80
2023/05/29 07:09:32;;;;;;;4.87;3.67;;;;;;;20.91;81.19;99436.88;5049222;28;20211;-79
2023/05/29 07:11:59;;;;;;;5.60;3.10;;;;;;;21.29;81.35;99434.22;5052778;28;20205;-79
2023/05/29 07:14:25;;;;;;;3.47;3.17;;;;;;;21.35;78.69;99433.06;5051680;28;20212;-81
2023/05/29 07:16:52;;;;;;;5.03;3.10;;;;;;;21.02;77.78;99427.50;5052510;28;20216;-78
2023/05/29 07:19:19;;;;;;;5.77;3.50;;;;;;;20.93;78.86;99440.16;5056823;28;20203;-79
2023/05/29 07:21:48;;;;;;;3.87;3.07;;;;;;;21.26;79.96;99440.28;5047395;28;20723;-80
2023/05/29 07:24:18;;;;;;;5.20;3.20;;;;;;;20.79;79.07;99441.94;5050172;28;20204;-77
2023/05/29 07:26:45;;;;;;;6.20;3.30;;;;;;;20.94;81.96;99441.78;5044695;28;20235;-79
2023/05/29 07:29:13;;;;;;;3.50;3.10;;;;;;;21.16;79.26;99443.94;5053076;28;20231;-80
2023/05/29 07:31:40;;;;;;;7.13;3.63;;;;;;;21.35;76.05;99436.59;5061319;28;20203;-80
2023/05/29 07:34:07;;;;;;;4.10;3.10;;;;;;;21.55;76.40;99440.13;5055273;28;20291;-79
2023/05/29 07:36:35;;;;;;;4.63;3.57;;;;;;;21.54;76.16;99436.59;5040058;28;20235;-79
2023/05/29 07:39:07;;;;;;;4.47;3.30;;;;;;;21.91;74.07;99438.44;5047339;28;20199;-79
2023/05/29 07:41:34;;;;;;;4.70;2.97;;;;;;;22.15;72.91;99441.06;5045498;28;20252;-79
2023/05/29 07:44:02;;;;;;;4.20;3.23;;;;;;;22.13;71.04;99446.81;5044720;28;20710;-79
2023/05/29 07:46:30;;;;;;;5.30;3.20;;;;;;;22.30;72.62;99443.53;5053065;28;20254;-79
2023/05/29 07:49:15;;;;;;;4.97;3.13;;;;;;;21.59;72.10;99443.88;5050283;28;20214;-79
2023/05/29 07:51:42;;;;;;;4.60;3.17;;;;;;;21.95;72.16;99448.50;5070692;28;20233;-78
2023/05/29 07:54:09;;;;;;;4.00;3.00;;;;;;;22.32;72.85;99449.47;5053066;28;20195;-78
2023/05/29 07:56:38;;;;;;;5.53;3.37;;;;;;;21.65;70.20;99439.97;5057310;28;20241;-78
2023/05/29 07:59:05;;;;;;;3.87;3.40;;;;;;;22.04;72.16;99443.16;5040171;28;20200;-78
2023/05/29 08:01:33;;;;;;;4.20;3.47;;;;;;;22.53;71.52;99453.47;5056213;28;20727;-79
2023/05/29 08:04:00;;;;;;;4.80;3.30;;;;;;;22.68;68.30;99447.69;5059775;28;20200;-80
2023/05/29 08:06:34;;;;;;;6.57;3.23;;;;;;;22.60;67.73;99442.94;5057053;28;20716;-79
2023/05/29 08:09:02;;;;;;;3.30;2.97;;;;;;;22.52;66.46;99454.56;5023672;28;20231;-80
2023/05/29 08:11:29;;;;;;;3.83;3.00;;;;;;;22.32;68.48;99452.22;5048513;28;20190;-79
2023/05/29 08:13:56;;;;;;;5.93;3.50;;;;;;;22.63;67.44;99447.78;5050252;28;20196;-79
2023/05/29 08:16:23;;;;;;;3.97;3.30;;;;;;;22.64;69.49;99451.34;5044859;28;20197;-79
2023/05/29 08:18:50;;;;;;;4.67;3.43;;;;;;;22.29;68.53;99455.56;5051214;28;20189;-78
2023/05/29 08:21:17;;;;;;;6.27;3.40;;;;;;;22.54;67.64;99443.34;5052665;28;20197;-79
2023/05/29 08:23:44;;;;;;;5.20;3.50;;;;;;;22.68;69.15;99442.22;5047291;28;20236;-78
2023/05/29 08:26:10;;;;;;;6.27;3.23;;;;;;;22.19;67.94;99432.00;5050752;28;20223;-79
2023/05/29 08:28:37;;;;;;;3.87;3.17;;;;;;;22.55;68.72;99447.69;5048079;28;20249;-79
2023/05/29 08:31:07;;;;;;;4.87;3.60;;;;;;;22.74;68.76;99437.50;5053408;28;20194;-78
2023/05/29 08:33:36;;;;;;;4.25;3.05;;;;;;;22.83;68.14;99438.41;5047692;28;20292;-79
2023/05/29 08:36:03;;;;;;;4.70;3.28;;;;;;;23.11;66.57;99437.28;5047804;28;20193;-78
2023/05/29 08:38:30;;;;;;;4.93;3.20;;;;;;;22.95;66.84;99435.19;5051541;28;20200;-78
2023/05/29 08:40:59;;;;;;;8.48;3.63;;;;;;;22.94;66.89;99444.50;5050678;28;20214;-78
2023/05/29 08:43:30;;;;;;;5.22;3.35;;;;;;;22.57;67.37;99451.75;5049301;28;20644;-79
2023/05/29 08:46:02;;;;;;;4.70;3.43;;;;;;;22.99;67.88;99447.94;5049534;28;20189;-80
2023/05/29 08:48:30;;;;;;;4.20;3.05;;;;;;;22.85;67.98;99440.84;5047551;28;20190;-81
2023/05/29 08:50:58;;;;;;;6.68;3.53;;;;;;;23.19;67.88;99435.72;5053638;28;20196;-80
2023/05/29 08:53:25;;;;;;;4.25;3.65;;;;;;;23.54;66.53;99450.56;5049907;28;20193;-79
2023/05/29 08:55:53;;;;;;;5.72;3.38;;;;;;;23.67;64.27;99444.22;5050556;28;20285;-80
2023/05/29 08:58:21;;;;;;;4.63;3.28;;;;;;;23.49;64.64;99450.69;5053706;28;20192;-79
2023/05/29 09:00:49;;;;;;;5.93;3.28;;;;;;;23.56;64.88;99448.34;5053646;28;20186;-81
2023/05/29 09:03:17;;;;;;;3.92;3.17;;;;;;;23.97;64.09;99450.88;5055337;28;20217;-78
2023/05/29 09:05:44;;;;;;;5.53;3.42;;;;;;;24.21;63.73;99445.94;5061363;28;20198;-80
2023/05/29 09:08:12;;;;;;;3.72;2.97;;;;;;;23.72;62.71;99443.28;5060440;28;20722;-79
2023/05/29 09:10:43;;;;;;;3.60;3.30;;;;;;;24.23;59.58;99451.06;5057408;28;20194;-81
2023/05/29 09:13:11;;;;;;;6.10;3.15;;;;;;;23.73;61.60;99444.91;5055324;28;20247;-79
2023/05/29 09:15:42;;;;;;;4.40;2.78;;;;;;;23.79;61.22;99449.97;5050606;28;20198;-81
2023/05/29 09:18:10;;;;;;;4.70;3.40;;;;;;;23.94;61.07;99448.75;5052886;28;20190;-80
2023/05/29 09:20:37;;;;;;;4.38;3.42;;;;;;;24.06;59.31;99438.88;5051106;28;20185;-79
2023/05/29 09:23:06;;;;;;;5.28;3.53;;;;;;;24.16;59.98;99442.47;5062194;28;20624;-79
2023/05/29 09:25:35;;;;;;;4.75;3.45;;;;;;;24.38;60.80;99445.19;5050015;28;20188;-81
2023/05/29 09:28:05;;;;;;;6.05;3.10;;;;;;;23.81;61.97;99444.97;5061199;28;20305;-82
2023/05/29 09:30:35;;;;;;;5.30;3.45;;;;;;;23.97;60.38;99445.41;5039231;28;20233;-81
2023/05/29 09:33:03;;;;;;;4.75;3.33;;;;;;;23.99;60.50;99446.72;5066773;28;20303;-81
2023/05/29 09:35:44;;;;;;;4.80;3.10;;;;;;;24.10;61.56;99439.88;5072610;28;20268;-83
2023/05/29 09:38:13;;;;;;;3.55;2.95;;;;;;;24.46;57.80;99442.50;5069684;28;20221;-81
2023/05/29 09:41:04;;;;;;;4.20;2.80;;;;;;;24.33;55.70;99437.91;5067792;28;20296;-82
2023/05/29 09:43:32;;;;;;;4.00;2.72;;;;;;;24.04;56.67;99441.09;5070002;28;20246;-81
2023/05/29 09:46:00;;;;;;;4.68;2.83;;;;;;;24.39;55.98;99438.59;5069573;28;20254;-81
2023/05/29 09:48:29;;;;;;;4.00;2.70;;;;;;;24.05;56.76;99436.44;5056994;28;20209;-81
2023/05/29 09:50:57;;;;;;;7.18;2.70;;;;;;;23.97;55.72;99434.47;5067419;28;20181;-81
2023/05/29 09:53:27;;;;;;;3.25;2.75;;;;;;;23.94;54.50;99438.63;5054854;28;20656;-82
2023/05/29 09:55:55;;;;;;;4.03;3.20;;;;;;;23.61;52.64;99438.06;5045564;28;20191;-82
2023/05/29 09:58:22;;;;;;;4.80;3.00;;;;;;;23.74;53.76;99438.34;5070107;28;20231;-82
2023/05/29 10:00:51;;;;;;;3.97;2.67;;;;;;;23.71;54.44;99431.53;5063602;28;20567;-81
2023/05/29 10:03:19;;;;;;;3.38;2.75;;;;;;;24.09;51.75;99429.22;5064039;28;20193;-81
2023/05/29 10:05:49;;;;;;;3.60;2.95;;;;;;;24.33;54.59;99439.84;5063734;28;20256;-80
2023/05/29 10:08:19;;;;;;;5.10;3.17;;;;;;;24.59;49.98;99429.03;5048316;28;20265;-81
2023/05/29 10:10:47;;;;;;;5.47;2.90;;;;;;;24.43;49.68;99432.19;5060822;28;20197;-81
2023/05/29 10:13:15;;;;;;;3.50;2.55;;;;;;;24.36;49.66;99429.06;5055420;28;20214;-81
2023/05/29 10:15:43;;;;;;;3.38;3.08;;;;;;;24.32;50.07;99433.56;5064646;28;20659;-80
2023/05/29 10:18:19;;;;;;;5.22;3.03;;;;;;;23.56;48.84;99426.47;5060794;28;20194;-79
2023/05/29 10:20:51;;;;;;;5.97;2.83;;;;;;;23.87;51.65;99431.97;5058687;28;20204;-78
2023/05/29 10:23:22;;;;;;;4.07;2.67;;;;;;;23.96;48.77;99425.44;5048153;28;20191;-78
2023/05/29 10:25:52;;;;;;;4.50;3.05;;;;;;;23.85;48.73;99432.28;5047501;28;20189;-78
2023/05/29 10:28:20;;;;;;;3.42;2.85;;;;;;;24.05;47.95;99423.56;5052228;28;20202;-78
2023/05/29 10:30:53;;;;;;;4.45;2.83;;;;;;;23.77;51.38;99421.28;5058391;28;20660;-78
2023/05/29 10:34:01;;;;;;;4.00;3.15;;;;;;;24.16;51.67;99421.41;5056383;28;20621;-78
2023/05/29 10:36:35;;;;;;;4.20;2.75;;;;;;;24.18;52.28;99413.69;5069469;28;20197;-78
2023/05/29 10:39:03;;;;;;;3.10;2.80;;;;;;;24.38;51.90;99421.38;5067442;28;20192;-79
2023/05/29 10:41:30;;;;;;;4.32;2.95;;;;;;;24.77;49.43;99419.75;5068187;28;20212;-79
2023/05/29 10:43:58;;;;;;;3.13;2.83;;;;;;;24.72;49.78;99420.69;5063871;28;20565;-79
2023/05/29 10:46:44;;;;;;;3.30;3.00;;;;;;;24.86;50.00;99417.81;5063177;28;20200;-79
2023/05/29 10:49:18;;;;;;;4.25;3.15;;;;;;;24.70;48.40;99416.63;5066959;28;20235;-78
2023/05/29 10:51:45;;;;;;;4.40;3.55;;;;;;;24.56;48.35;99419.50;5064531;28;20199;-78
2023/05/29 10:54:13;;;;;;;3.20;2.90;;;;;;;25.22;49.67;99420.34;5056105;28;20254;-78
2023/05/29 10:56:43;;;;;;;6.28;3.33;;;;;;;24.83;50.36;99419.25;5063100;28;20186;-80
2023/05/29 10:59:10;;;;;;;5.65;2.97;;;;;;;24.76;50.11;99418.94;5059550;28;20196;-78
2023/05/29 11:01:40;;;;;;;3.95;2.83;;;;;;;24.80;50.22;99427.31;5054423;28;20198;-78
2023/05/29 11:04:24;;;;;;;3.88;2.83;;;;;;;24.52;49.76;99424.00;5051931;28;20197;-80
2023/05/29 11:06:52;;;;;;;3.28;2.97;;;;;;;24.55;48.55;99413.22;5049493;28;20626;-79
2023/05/29 11:09:35;;;;;;;3.00;2.70;;;;;;;25.51;50.07;99416.97;5060054;28;20189;-78
2023/05/29 11:12:09;;;;;;;4.18;3.10;;;;;;;25.48;49.30;99412.91;5057106;28;20199;-79
2023/05/29 11:14:47;;;;;;;3.95;2.83;;;;;;;25.55;46.92;99428.94;5053740;28;20272;-78
2023/05/29 11:17:37;;;;;;;3.92;3.00;;;;;;;25.94;44.30;99401.28;5053669;28;20193;-78
2023/05/29 11:20:28;;;;;;;3.45;3.13;;;;;;;25.41;48.11;99409.88;5060958;28;20196;-79
2023/05/29 11:22:58;;;;;;;4.10;3.08;;;;;;;25.08;49.21;99405.97;5050675;28;20717;-79
2023/05/29 11:25:25;;;;;;;4.20;3.20;;;;;;;25.59;46.77;99405.19;5052699;28;20189;-78
2023/05/29 11:27:52;;;;;;;3.88;2.95;;;;;;;26.13;48.82;99404.44;5056097;28;20263;-78
2023/05/29 11:30:20;;;;;;;5.00;3.72;;;;;;;26.59;46.98;99402.88;5058549;28;20193;-78
2023/05/29 11:32:48;;;;;;;4.70;3.80;;;;;;;26.46;47.20;99404.69;5054198;28;20276;-78
2023/05/29 11:35:15;;;;;;;7.10;3.28;;;;;;;26.40;45.49;99403.28;5053911;28;20532;-78
2023/05/29 11:37:44;;;;;;;7.20;3.58;;;;;;;26.33;47.03;99402.97;5057292;28;20203;-78
2023/05/29 11:40:11;;;;;;;6.10;3.25;;;;;;;26.60;45.53;99398.97;5062179;28;20233;-78
2023/05/29 11:42:46;;;;;;;3.65;3.30;;;;;;;26.73;44.53;99393.25;5063737;28;20212;-78